Time;durP1;ratioP1;P1;durP2;ratioP2;P2;SDS_P1;SDS_P2;PMS_P1;PMS_P2;Temp;Humidity;BMP_temperature;BMP_pressure;BME280_temperature;BME280_humidity;BME280_pressure;Samples;Min_cycle;Max_cycle;Signal;HPM_P1;HPM_P2
2020/12/19 00:00:49;;;;;;;1.48;1.38;;;2.50;99.90;;;;;;5088742;28;20160;-74
2020/12/19 00:03:15;;;;;;;0.80;0.80;;;2.50;99.90;;;;;;5089941;28;20164;-74
2020/12/19 00:05:41;;;;;;;1.88;1.33;;;2.50;99.90;;;;;;5088660;28;20834;-74
2020/12/19 00:08:06;;;;;;;0.32;0.32;;;2.40;99.90;;;;;;5090008;28;20613;-74
2020/12/19 00:10:32;;;;;;;2.90;2.70;;;2.40;99.90;;;;;;5088499;28;20164;-74
2020/12/19 00:13:01;;;;;;;0.32;0.32;;;2.40;99.90;;;;;;5089885;28;20218;-74
2020/12/19 00:15:28;;;;;;;0.20;0.20;;;2.40;99.90;;;;;;5088204;28;20221;-74
2020/12/19 00:17:54;;;;;;;0.50;0.50;;;2.40;99.90;;;;;;5089202;28;20156;-74
2020/12/19 00:20:20;;;;;;;1.42;1.33;;;2.30;99.90;;;;;;5088461;28;20164;-74
2020/12/19 00:22:46;;;;;;;2.47;2.30;;;2.30;99.90;;;;;;5089571;28;20192;-74
2020/12/19 00:25:13;;;;;;;0.20;0.20;;;2.40;99.90;;;;;;5089641;28;20167;-74
2020/12/19 00:27:39;;;;;;;2.97;2.78;;;2.40;99.90;;;;;;5089620;28;20160;-74
2020/12/19 00:30:06;;;;;;;0.52;0.52;;;2.40;99.90;;;;;;5089557;28;20164;-74
2020/12/19 00:32:33;;;;;;;1.23;1.23;;;2.40;99.90;;;;;;5089358;28;20192;-74
2020/12/19 00:34:59;;;;;;;0.77;0.77;;;2.40;99.90;;;;;;5088260;28;20296;-74
2020/12/19 00:37:24;;;;;;;0.50;0.50;;;2.40;99.90;;;;;;5089525;28;20164;-73
2020/12/19 00:39:51;;;;;;;0.25;0.25;;;2.30;99.90;;;;;;5104501;28;20309;-73
2020/12/19 00:42:17;;;;;;;2.20;0.55;;;2.30;99.90;;;;;;5108185;28;20253;-74
2020/12/19 00:44:43;;;;;;;1.08;1.08;;;2.30;99.90;;;;;;5109691;28;20194;-74
2020/12/19 00:47:10;;;;;;;0.47;0.47;;;2.30;99.90;;;;;;5108366;28;20174;-73
2020/12/19 00:49:36;;;;;;;0.55;0.52;;;2.30;99.90;;;;;;5109697;28;20160;-74
2020/12/19 00:52:02;;;;;;;0.90;0.85;;;2.30;99.90;;;;;;5109525;28;20274;-73
2020/12/19 00:54:28;;;;;;;0.35;0.35;;;2.30;99.90;;;;;;5108262;28;20282;-74
2020/12/19 00:56:54;;;;;;;0.95;0.95;;;2.40;99.90;;;;;;5108206;28;20160;-74
2020/12/19 00:59:20;;;;;;;0.20;0.20;;;2.30;99.90;;;;;;5108145;28;20167;-73
2020/12/19 01:01:47;;;;;;;0.47;0.47;;;2.30;99.90;;;;;;5108094;28;20195;-73
2020/12/19 01:04:13;;;;;;;1.08;0.75;;;2.30;99.90;;;;;;5109505;28;20179;-74
2020/12/19 01:06:40;;;;;;;0.50;0.50;;;2.30;99.90;;;;;;5109544;28;20155;-74
2020/12/19 01:09:06;;;;;;;1.25;1.25;;;2.30;99.90;;;;;;5109344;28;20158;-73
2020/12/19 01:11:35;;;;;;;0.30;0.30;;;2.30;99.90;;;;;;5109443;28;20221;-74
2020/12/19 01:14:01;;;;;;;1.50;1.42;;;2.30;99.90;;;;;;5109269;28;20175;-74
2020/12/19 01:16:29;;;;;;;0.20;0.20;;;2.30;99.90;;;;;;5109340;28;20160;-73
2020/12/19 01:18:56;;;;;;;0.20;0.20;;;2.20;99.90;;;;;;5109250;28;20156;-74
2020/12/19 01:21:25;;;;;;;0.38;0.38;;;2.30;99.90;;;;;;5109256;28;20246;-74
2020/12/19 01:23:52;;;;;;;0.70;0.70;;;2.30;99.90;;;;;;5109314;28;20156;-73
2020/12/19 01:26:19;;;;;;;1.00;1.00;;;2.30;99.90;;;;;;5107810;28;20164;-74
2020/12/19 01:28:46;;;;;;;0.60;0.60;;;2.30;99.90;;;;;;5112026;28;20162;-74
2020/12/19 01:31:14;;;;;;;1.33;1.30;;;2.30;99.90;;;;;;5111772;28;20702;-73
2020/12/19 01:33:40;;;;;;;0.17;0.17;;;2.30;99.90;;;;;;5113129;28;20208;-73
2020/12/19 01:36:11;;;;;;;0.75;0.75;;;2.30;99.90;;;;;;5113237;28;20155;-74
2020/12/19 01:38:38;;;;;;;0.40;0.40;;;2.30;99.90;;;;;;5113095;28;20179;-73
2020/12/19 01:41:04;;;;;;;0.15;0.15;;;2.30;99.90;;;;;;5111469;28;20219;-73
2020/12/19 01:43:50;;;;;;;0.80;0.80;;;2.20;99.90;;;;;;5111838;28;20236;-73
2020/12/19 01:46:47;;;;;;;1.80;1.20;;;2.20;99.90;;;;;;5111552;28;20175;-74
2020/12/19 01:49:14;;;;;;;0.10;0.10;;;2.20;99.90;;;;;;5112007;28;20195;-73
2020/12/19 01:51:41;;;;;;;0.70;0.70;;;2.10;99.90;;;;;;5111477;28;20198;-73
2020/12/19 01:54:08;;;;;;;0.20;0.20;;;2.10;99.90;;;;;;5112545;28;20183;-73
2020/12/19 01:56:46;;;;;;;0.25;0.25;;;2.20;99.90;;;;;;5112660;28;20151;-74
2020/12/19 01:59:12;;;;;;;1.55;1.55;;;2.20;99.90;;;;;;5112530;28;20152;-74
2020/12/19 02:01:45;;;;;;;0.38;0.38;;;2.00;99.90;;;;;;5111279;28;20195;-74
2020/12/19 02:04:12;;;;;;;1.20;1.00;;;2.00;99.90;;;;;;5111397;28;20186;-73
2020/12/19 02:06:39;;;;;;;0.55;0.55;;;2.00;99.90;;;;;;5112579;28;20160;-73
2020/12/19 02:09:06;;;;;;;0.15;0.15;;;2.10;99.90;;;;;;5112563;28;20168;-73
2020/12/19 02:11:32;;;;;;;0.30;0.30;;;2.10;99.90;;;;;;5112453;28;20186;-74
2020/12/19 02:13:58;;;;;;;0.57;0.57;;;2.10;99.90;;;;;;5112294;28;20266;-74
2020/12/19 02:16:24;;;;;;;1.00;1.00;;;2.10;99.90;;;;;;5112221;28;20152;-73
2020/12/19 02:18:50;;;;;;;1.10;1.02;;;2.10;99.90;;;;;;5111039;28;20206;-74
2020/12/19 02:21:16;;;;;;;1.00;0.90;;;2.10;99.90;;;;;;5112153;28;20191;-73
2020/12/19 02:23:42;;;;;;;0.15;0.15;;;2.10;99.90;;;;;;5112232;28;20155;-74
2020/12/19 02:26:08;;;;;;;0.40;0.40;;;2.10;99.90;;;;;;5112310;28;20200;-74
2020/12/19 02:28:34;;;;;;;0.47;0.47;;;2.00;99.90;;;;;;5112168;28;20159;-74
2020/12/19 02:31:00;;;;;;;1.45;1.45;;;2.10;99.90;;;;;;5111966;28;20195;-73
2020/12/19 02:33:26;;;;;;;0.40;0.40;;;2.10;99.90;;;;;;5112062;28;20194;-73
2020/12/19 02:35:52;;;;;;;0.52;0.52;;;2.00;99.90;;;;;;5110712;28;20163;-74
2020/12/19 02:38:18;;;;;;;0.85;0.73;;;2.10;99.90;;;;;;5111993;28;20155;-74
2020/12/19 02:40:44;;;;;;;0.80;0.80;;;2.10;99.90;;;;;;5110780;28;20216;-73
2020/12/19 02:43:10;;;;;;;0.45;0.45;;;2.20;99.90;;;;;;5111908;28;20225;-74
2020/12/19 02:45:35;;;;;;;0.32;0.32;;;2.10;99.90;;;;;;5111973;28;20252;-74
2020/12/19 02:48:02;;;;;;;0.75;0.75;;;2.10;99.90;;;;;;5111725;28;20170;-74
2020/12/19 02:50:28;;;;;;;0.10;0.10;;;2.20;99.90;;;;;;5111827;28;20167;-73
2020/12/19 02:52:53;;;;;;;1.05;1.05;;;2.20;99.90;;;;;;5110126;28;20683;-73
2020/12/19 02:55:19;;;;;;;0.22;0.22;;;2.10;99.90;;;;;;5111581;28;20163;-73
2020/12/19 02:57:45;;;;;;;0.22;0.22;;;2.10;99.90;;;;;;5111628;28;20159;-74
2020/12/19 03:00:11;;;;;;;0.55;0.55;;;2.10;99.90;;;;;;5111572;28;20251;-73
2020/12/19 03:02:37;;;;;;;0.32;0.32;;;2.10;99.90;;;;;;5111419;28;20217;-74
2020/12/19 03:05:03;;;;;;;0.20;0.20;;;2.00;99.90;;;;;;5110159;28;20163;-74
2020/12/19 03:07:29;;;;;;;0.70;0.70;;;2.00;99.90;;;;;;5111401;28;20163;-73
2020/12/19 03:09:55;;;;;;;0.20;0.20;;;2.00;99.90;;;;;;5110012;28;20168;-74
2020/12/19 03:12:20;;;;;;;1.00;1.00;;;2.10;99.90;;;;;;5111300;28;20192;-73
2020/12/19 03:14:46;;;;;;;0.25;0.25;;;2.10;99.90;;;;;;5109839;28;20199;-73
2020/12/19 03:17:12;;;;;;;0.10;0.10;;;2.10;99.90;;;;;;5111287;28;20177;-73
2020/12/19 03:19:38;;;;;;;0.63;0.63;;;2.10;99.90;;;;;;5111214;28;20155;-74
2020/12/19 03:22:04;;;;;;;0.47;0.47;;;2.10;99.90;;;;;;5110928;28;20671;-74
2020/12/19 03:24:30;;;;;;;0.40;0.40;;;2.10;99.90;;;;;;5111036;28;20160;-74
2020/12/19 03:26:56;;;;;;;0.20;0.20;;;2.10;99.90;;;;;;5111069;28;20164;-74
2020/12/19 03:29:22;;;;;;;0.40;0.40;;;2.20;99.90;;;;;;5111146;28;20170;-74
2020/12/19 03:31:47;;;;;;;0.20;0.20;;;2.10;99.90;;;;;;5110817;28;20195;-74
2020/12/19 03:34:13;;;;;;;0.30;0.30;;;2.00;99.90;;;;;;5110697;28;20223;-74
2020/12/19 03:36:39;;;;;;;1.10;0.73;;;2.00;99.90;;;;;;5110763;28;20159;-75
2020/12/19 03:39:05;;;;;;;0.20;0.20;;;1.90;99.90;;;;;;5110648;28;20159;-74
2020/12/19 03:41:31;;;;;;;0.82;0.82;;;1.90;99.90;;;;;;5110332;28;20229;-74
2020/12/19 03:43:57;;;;;;;2.50;1.98;;;1.90;99.90;;;;;;5109232;28;20178;-74
2020/12/19 03:46:23;;;;;;;0.98;0.98;;;1.80;99.90;;;;;;5109478;28;20179;-74
2020/12/19 03:48:48;;;;;;;0.28;0.28;;;1.80;99.90;;;;;;5110585;28;20163;-75
2020/12/19 03:51:14;;;;;;;0.20;0.20;;;1.80;99.90;;;;;;5110252;28;20191;-74
2020/12/19 03:53:40;;;;;;;0.85;0.85;;;1.80;99.90;;;;;;5109102;28;20210;-74
2020/12/19 03:56:08;;;;;;;0.28;0.28;;;1.70;99.90;;;;;;5108818;28;20167;-74
2020/12/19 03:58:33;;;;;;;0.30;0.30;;;1.80;99.90;;;;;;5110273;28;20155;-75
2020/12/19 04:00:59;;;;;;;0.90;0.90;;;1.80;99.90;;;;;;5108872;28;20246;-75
2020/12/19 04:03:25;;;;;;;0.77;0.77;;;1.80;99.90;;;;;;5110390;28;20164;-74
2020/12/19 04:05:51;;;;;;;0.10;0.10;;;1.90;99.90;;;;;;5110267;28;20163;-73
2020/12/19 04:08:17;;;;;;;1.65;1.55;;;1.80;99.90;;;;;;5108639;28;20636;-74
2020/12/19 04:10:43;;;;;;;0.10;0.10;;;1.80;99.90;;;;;;5110080;28;20181;-74
2020/12/19 04:13:09;;;;;;;0.40;0.40;;;1.80;99.90;;;;;;5108769;28;20220;-75
2020/12/19 04:15:35;;;;;;;5.65;1.27;;;1.80;99.90;;;;;;5109983;28;20160;-75
2020/12/19 04:18:00;;;;;;;0.55;0.55;;;1.80;99.90;;;;;;5109964;28;20156;-74
2020/12/19 04:20:26;;;;;;;0.10;0.10;;;1.80;99.90;;;;;;5110027;28;20159;-74
2020/12/19 04:22:52;;;;;;;0.20;0.20;;;1.80;99.90;;;;;;5109918;28;20216;-75
2020/12/19 04:25:18;;;;;;;0.10;0.10;;;1.70;99.90;;;;;;5109840;28;20155;-74
2020/12/19 04:27:44;;;;;;;1.15;1.05;;;1.80;99.90;;;;;;5109809;28;20774;-74
2020/12/19 04:30:10;;;;;;;0.77;0.77;;;1.80;99.90;;;;;;5109836;28;20246;-74
2020/12/19 04:32:37;;;;;;;0.10;0.10;;;1.80;99.90;;;;;;5109672;28;20246;-75
2020/12/19 04:35:04;;;;;;;0.20;0.20;;;1.80;99.90;;;;;;5108524;28;20254;-75
2020/12/19 04:37:30;;;;;;;0.10;0.10;;;1.70;99.90;;;;;;5108388;28;20275;-73
2020/12/19 04:39:56;;;;;;;0.38;0.38;;;1.70;99.90;;;;;;5108368;28;20179;-74
2020/12/19 04:42:23;;;;;;;0.35;0.35;;;1.70;99.90;;;;;;5109448;28;20240;-74
2020/12/19 04:44:50;;;;;;;0.55;0.52;;;1.80;99.90;;;;;;5109577;28;20155;-74
2020/12/19 04:47:17;;;;;;;0.10;0.10;;;1.80;99.90;;;;;;5109546;28;20224;-74
2020/12/19 04:49:44;;;;;;;0.95;0.77;;;1.70;99.90;;;;;;5109620;28;20187;-74
2020/12/19 04:52:11;;;;;;;0.82;0.82;;;1.60;99.90;;;;;;5109380;28;20229;-73
2020/12/19 04:54:37;;;;;;;1.88;1.17;;;1.70;99.90;;;;;;5109439;28;20182;-73
2020/12/19 04:57:03;;;;;;;0.40;0.40;;;1.60;99.90;;;;;;5109493;28;20178;-74
2020/12/19 04:59:29;;;;;;;0.40;0.40;;;1.40;99.90;;;;;;5109522;28;20159;-74
2020/12/19 05:01:55;;;;;;;0.10;0.10;;;1.40;99.90;;;;;;5110006;28;20222;-75
2020/12/19 05:04:22;;;;;;;0.40;0.40;;;1.40;99.90;;;;;;5114728;28;20175;-73
2020/12/19 05:06:48;;;;;;;0.35;0.35;;;1.50;99.90;;;;;;5116242;28;20178;-74
2020/12/19 05:09:14;;;;;;;0.20;0.20;;;1.50;99.90;;;;;;5115964;28;20155;-73
2020/12/19 05:11:40;;;;;;;0.20;0.20;;;1.50;99.90;;;;;;5116133;28;20190;-73
2020/12/19 05:14:07;;;;;;;0.30;0.30;;;1.50;99.90;;;;;;5113787;28;20202;-74
2020/12/19 05:16:33;;;;;;;0.20;0.20;;;1.60;99.90;;;;;;5116251;28;20162;-74
2020/12/19 05:19:10;;;;;;;0.50;0.50;;;1.50;99.90;;;;;;5114840;28;20215;-73
2020/12/19 05:21:44;;;;;;;0.10;0.10;;;1.60;99.90;;;;;;5114768;28;20190;-74
2020/12/19 05:24:27;;;;;;;0.28;0.28;;;1.60;99.90;;;;;;5116111;28;20242;-74
2020/12/19 05:26:54;;;;;;;0.73;0.73;;;1.60;99.90;;;;;;5114517;28;20305;-74
2020/12/19 05:29:19;;;;;;;0.32;0.32;;;1.50;99.90;;;;;;5116050;28;20159;-73
2020/12/19 05:32:05;;;;;;;0.15;0.15;;;1.60;99.90;;;;;;5115835;28;20191;-74
2020/12/19 05:34:32;;;;;;;0.30;0.30;;;1.60;99.90;;;;;;5115627;28;20215;-74
2020/12/19 05:36:58;;;;;;;1.48;1.38;;;1.60;99.90;;;;;;5115779;28;20155;-74
2020/12/19 05:39:24;;;;;;;0.25;0.25;;;1.60;99.90;;;;;;5115746;28;20159;-74
2020/12/19 05:41:51;;;;;;;0.20;0.20;;;1.60;99.90;;;;;;5115470;28;20229;-74
2020/12/19 05:44:21;;;;;;;0.20;0.20;;;1.50;99.90;;;;;;5115851;28;20155;-74
2020/12/19 05:46:48;;;;;;;1.35;0.80;;;1.50;99.90;;;;;;5115887;28;20229;-74
2020/12/19 05:49:13;;;;;;;0.28;0.28;;;1.60;99.90;;;;;;5114437;28;20179;-74
2020/12/19 05:51:42;;;;;;;0.73;0.73;;;1.70;99.90;;;;;;5114396;28;20195;-74
2020/12/19 05:54:11;;;;;;;0.10;0.10;;;1.70;99.90;;;;;;5114919;28;20203;-72
2020/12/19 05:56:44;;;;;;;0.57;0.57;;;1.70;99.90;;;;;;5115792;28;20158;-74
2020/12/19 05:59:15;;;;;;;0.90;0.90;;;1.70;99.90;;;;;;5115783;28;20160;-74
2020/12/19 06:01:43;;;;;;;0.20;0.20;;;1.70;99.90;;;;;;5115701;28;20280;-74
2020/12/19 06:04:11;;;;;;;0.30;0.30;;;1.60;99.90;;;;;;5115604;28;20165;-73
2020/12/19 06:06:46;;;;;;;0.50;0.50;;;1.60;99.90;;;;;;5115709;28;20152;-74
2020/12/19 06:09:13;;;;;;;0.20;0.20;;;1.60;99.90;;;;;;5115730;28;20182;-75
2020/12/19 06:12:04;;;;;;;0.10;0.10;;;1.70;99.90;;;;;;5115525;28;20194;-74
2020/12/19 06:14:39;;;;;;;0.10;0.10;;;1.80;99.90;;;;;;5112239;28;20194;-75
2020/12/19 06:17:20;;;;;;;0.52;0.52;;;1.70;99.90;;;;;;5112463;28;20160;-74
2020/12/19 06:19:48;;;;;;;0.98;0.98;;;1.80;99.90;;;;;;5110963;28;20272;-74
2020/12/19 06:22:14;;;;;;;0.20;0.20;;;1.90;99.90;;;;;;5112243;28;20675;-75
2020/12/19 06:24:45;;;;;;;0.22;0.22;;;1.90;99.90;;;;;;5112194;28;20171;-74
2020/12/19 06:27:23;;;;;;;0.10;0.10;;;1.90;99.90;;;;;;5112176;28;20165;-75
2020/12/19 06:29:51;;;;;;;0.15;0.15;;;1.90;99.90;;;;;;5112140;28;20167;-74
2020/12/19 06:32:27;;;;;;;3.83;0.90;;;1.90;99.90;;;;;;5112060;28;20191;-75
2020/12/19 06:34:57;;;;;;;0.20;0.20;;;1.90;99.90;;;;;;5111825;28;20214;-74
2020/12/19 06:37:26;;;;;;;0.50;0.50;;;1.90;99.90;;;;;;5111359;28;20160;-74
2020/12/19 06:40:17;;;;;;;0.10;0.10;;;2.00;99.90;;;;;;5110793;28;20539;-74
2020/12/19 06:42:44;;;;;;;0.50;0.50;;;1.90;99.90;;;;;;5111382;28;20274;-74
2020/12/19 06:45:28;;;;;;;0.10;0.10;;;1.80;99.90;;;;;;5111841;28;20181;-74
2020/12/19 06:47:55;;;;;;;0.20;0.20;;;1.80;99.90;;;;;;5111832;28;20162;-74
2020/12/19 06:50:23;;;;;;;0.35;0.35;;;1.70;99.90;;;;;;5110342;28;20221;-73
2020/12/19 06:52:56;;;;;;;0.82;0.82;;;1.70;99.90;;;;;;5110309;28;20191;-74
2020/12/19 06:55:27;;;;;;;0.13;0.13;;;1.80;99.90;;;;;;5111628;28;20156;-74
2020/12/19 06:57:55;;;;;;;0.10;0.10;;;1.90;99.90;;;;;;5111531;28;20246;-74
2020/12/19 07:00:30;;;;;;;0.10;0.10;;;2.00;99.90;;;;;;5110251;28;20170;-74
2020/12/19 07:03:00;;;;;;;0.17;0.17;;;1.90;99.90;;;;;;5111380;28;20193;-74
2020/12/19 07:05:34;;;;;;;0.40;0.40;;;1.80;99.90;;;;;;5111275;28;20175;-74
2020/12/19 07:08:22;;;;;;;0.13;0.13;;;1.90;99.90;;;;;;5111265;28;20160;-74
2020/12/19 07:10:50;;;;;;;0.20;0.20;;;1.80;99.90;;;;;;5111233;28;20523;-74
2020/12/19 07:13:16;;;;;;;0.10;0.10;;;1.70;99.90;;;;;;5111078;28;20202;-74
2020/12/19 07:15:43;;;;;;;0.30;0.30;;;1.80;99.90;;;;;;5109902;28;20170;-74
2020/12/19 07:18:39;;;;;;;1.38;1.27;;;1.90;99.90;;;;;;5111165;28;20152;-74
2020/12/19 07:21:08;;;;;;;0.13;0.13;;;1.90;99.90;;;;;;5111225;28;20187;-74
2020/12/19 07:23:38;;;;;;;0.10;0.10;;;1.90;99.90;;;;;;5110986;28;20213;-73
2020/12/19 07:26:06;;;;;;;0.35;0.35;;;2.00;99.90;;;;;;5110320;28;20162;-74
2020/12/19 07:28:32;;;;;;;0.10;0.10;;;2.10;99.90;;;;;;5109547;28;20171;-73
2020/12/19 07:30:58;;;;;;;0.17;0.17;;;2.10;99.90;;;;;;5110689;28;20191;-73
2020/12/19 07:33:24;;;;;;;0.20;0.20;;;2.20;99.90;;;;;;5109476;28;20202;-73
2020/12/19 07:35:50;;;;;;;0.10;0.10;;;2.20;99.90;;;;;;5110762;28;20193;-73
2020/12/19 07:38:20;;;;;;;0.43;0.43;;;2.20;99.90;;;;;;5109487;28;20234;-74
2020/12/19 07:40:53;;;;;;;1.20;1.20;;;2.10;99.90;;;;;;5110375;28;20250;-73
2020/12/19 07:43:21;;;;;;;0.52;0.52;;;2.10;99.90;;;;;;5110523;28;20175;-74
2020/12/19 07:45:49;;;;;;;0.93;0.90;;;2.00;99.90;;;;;;5110624;28;20156;-74
2020/12/19 07:48:17;;;;;;;0.75;0.75;;;1.90;99.90;;;;;;5110595;28;20162;-74
2020/12/19 07:50:43;;;;;;;1.30;1.20;;;1.90;99.90;;;;;;5110264;28;20198;-74
2020/12/19 07:53:09;;;;;;;0.10;0.10;;;1.90;99.90;;;;;;5108961;28;20191;-75
2020/12/19 07:55:35;;;;;;;0.13;0.13;;;2.00;99.90;;;;;;5110410;28;20185;-74
2020/12/19 07:58:03;;;;;;;0.10;0.10;;;2.10;99.90;;;;;;5110301;28;20166;-74
2020/12/19 08:00:30;;;;;;;1.00;0.85;;;2.30;99.90;;;;;;5110292;28;20210;-74
2020/12/19 08:02:56;;;;;;;0.40;0.40;;;2.40;99.90;;;;;;5109967;28;20251;-74
2020/12/19 08:05:22;;;;;;;0.28;0.28;;;2.30;99.90;;;;;;5110028;28;20159;-74
2020/12/19 08:07:52;;;;;;;0.40;0.40;;;2.30;99.90;;;;;;5110294;28;20187;-74
2020/12/19 08:10:19;;;;;;;0.22;0.22;;;2.30;99.90;;;;;;5108670;28;20203;-74
2020/12/19 08:12:45;;;;;;;0.10;0.10;;;2.40;99.90;;;;;;5109684;28;20166;-74
2020/12/19 08:15:15;;;;;;;0.85;0.85;;;2.50;99.90;;;;;;5110036;28;20167;-74
2020/12/19 08:17:51;;;;;;;0.90;0.90;;;2.50;99.90;;;;;;5109877;28;20574;-74
2020/12/19 08:20:26;;;;;;;0.03;0.03;;;2.50;99.90;;;;;;5109779;28;20190;-74
2020/12/19 08:22:54;;;;;;;0.73;0.73;;;2.60;99.90;;;;;;5109812;28;20155;-74
2020/12/19 08:25:21;;;;;;;0.20;0.20;;;2.60;99.90;;;;;;5109946;28;20164;-74
2020/12/19 08:27:47;;;;;;;0.10;0.10;;;2.50;99.90;;;;;;5108342;28;20155;-74
2020/12/19 08:30:34;;;;;;;0.30;0.30;;;2.40;99.90;;;;;;5109553;28;20186;-74
2020/12/19 08:33:06;;;;;;;0.30;0.30;;;2.30;99.90;;;;;;5109321;28;20209;-74
2020/12/19 08:35:36;;;;;;;0.22;0.22;;;2.40;99.90;;;;;;5109860;28;20151;-74
2020/12/19 08:38:07;;;;;;;0.10;0.10;;;2.40;99.90;;;;;;5108770;28;20163;-74
2020/12/19 08:40:48;;;;;;;0.15;0.15;;;2.30;99.90;;;;;;5108324;28;20240;-74
2020/12/19 08:43:15;;;;;;;1.20;0.65;;;2.30;99.90;;;;;;5107930;28;20171;-74
2020/12/19 08:45:43;;;;;;;0.20;0.20;;;2.30;99.90;;;;;;5109674;28;20215;-74
2020/12/19 08:48:18;;;;;;;0.10;0.10;;;2.30;99.90;;;;;;5109458;28;20185;-74
2020/12/19 08:50:45;;;;;;;0.20;0.20;;;2.30;99.90;;;;;;5109434;28;20190;-74
2020/12/19 08:53:21;;;;;;;0.20;0.20;;;2.30;99.90;;;;;;5109362;28;20195;-74
2020/12/19 08:55:49;;;;;;;0.45;0.45;;;2.20;99.90;;;;;;5109354;28;20179;-75
2020/12/19 08:58:30;;;;;;;0.10;0.10;;;2.20;99.90;;;;;;5107937;28;20169;-74
2020/12/19 09:01:11;;;;;;;0.60;0.60;;;2.20;99.90;;;;;;5109406;28;20179;-74
2020/12/19 09:03:37;;;;;;;0.10;0.10;;;2.30;99.90;;;;;;5109263;28;20162;-74
2020/12/19 09:06:07;;;;;;;0.20;0.20;;;2.40;99.90;;;;;;5109324;28;20159;-74
2020/12/19 09:08:39;;;;;;;0.22;0.22;;;2.30;99.90;;;;;;5109202;28;20155;-74
2020/12/19 09:11:20;;;;;;;0.40;0.40;;;2.30;99.90;;;;;;5109113;28;20226;-74
2020/12/19 09:13:46;;;;;;;0.10;0.10;;;2.30;99.90;;;;;;5109144;28;20183;-74
2020/12/19 09:16:12;;;;;;;0.20;0.20;;;2.30;99.90;;;;;;5107996;28;20167;-74
2020/12/19 09:18:39;;;;;;;0.20;0.20;;;2.40;99.90;;;;;;5108927;28;20215;-75
2020/12/19 09:21:10;;;;;;;0.10;0.10;;;2.50;99.90;;;;;;5109185;28;20179;-74
2020/12/19 09:23:37;;;;;;;0.45;0.45;;;2.60;99.90;;;;;;5107584;28;20178;-74
2020/12/19 09:26:06;;;;;;;0.20;0.20;;;2.60;99.90;;;;;;5109170;28;20211;-72
2020/12/19 09:28:32;;;;;;;0.30;0.30;;;2.60;99.90;;;;;;5107810;28;20167;-74
2020/12/19 09:30:58;;;;;;;0.22;0.22;;;2.40;99.90;;;;;;5108920;28;20198;-74
2020/12/19 09:33:25;;;;;;;0.50;0.50;;;2.60;99.90;;;;;;5109049;28;20183;-73
2020/12/19 09:35:51;;;;;;;0.20;0.20;;;2.60;99.90;;;;;;5109074;28;20238;-74
2020/12/19 09:38:18;;;;;;;0.80;0.75;;;2.50;99.90;;;;;;5107650;28;20235;-74
2020/12/19 09:40:43;;;;;;;0.30;0.30;;;2.40;99.90;;;;;;5107436;28;20191;-74
2020/12/19 09:43:09;;;;;;;0.93;0.88;;;2.30;99.90;;;;;;5107625;28;20186;-74
2020/12/19 09:45:36;;;;;;;0.10;0.10;;;2.20;99.90;;;;;;5108924;28;20163;-74
2020/12/19 09:48:04;;;;;;;1.42;0.75;;;2.30;99.90;;;;;;5108874;28;20156;-73
2020/12/19 09:50:31;;;;;;;0.73;0.73;;;2.20;99.90;;;;;;5112670;28;20198;-73
2020/12/19 09:52:57;;;;;;;1.45;1.17;;;2.30;99.90;;;;;;5112491;28;20174;-73
2020/12/19 09:55:24;;;;;;;0.38;0.38;;;2.30;99.90;;;;;;5112712;28;20167;-73
2020/12/19 09:57:50;;;;;;;0.10;0.10;;;2.30;99.90;;;;;;5112484;28;20259;-73
2020/12/19 10:00:17;;;;;;;0.20;0.20;;;2.30;99.90;;;;;;5112252;28;20206;-73
2020/12/19 10:02:46;;;;;;;0.57;0.52;;;2.30;99.90;;;;;;5112430;28;20167;-73
2020/12/19 10:05:13;;;;;;;0.40;0.40;;;2.40;99.90;;;;;;5112331;28;20155;-73
2020/12/19 10:07:39;;;;;;;0.30;0.30;;;2.30;99.90;;;;;;5112420;28;20174;-73
2020/12/19 10:10:06;;;;;;;0.10;0.10;;;2.30;99.90;;;;;;5110904;28;20167;-73
2020/12/19 10:12:36;;;;;;;0.80;0.80;;;2.30;99.90;;;;;;5112264;28;20211;-73
2020/12/19 10:15:07;;;;;;;0.20;0.20;;;2.30;99.90;;;;;;5110744;28;20195;-73
2020/12/19 10:17:33;;;;;;;0.20;0.20;;;2.30;99.90;;;;;;5112436;28;20148;-73
2020/12/19 10:19:59;;;;;;;0.20;0.20;;;2.20;99.90;;;;;;5112133;28;20186;-73
2020/12/19 10:22:25;;;;;;;0.15;0.15;;;2.30;99.90;;;;;;5112217;28;20155;-73
2020/12/19 10:24:51;;;;;;;0.20;0.20;;;2.20;99.90;;;;;;5110807;28;20172;-73
2020/12/19 10:27:17;;;;;;;0.10;0.10;;;2.30;99.90;;;;;;5112262;28;20156;-73
2020/12/19 10:29:43;;;;;;;1.27;1.25;;;2.40;99.90;;;;;;5111890;28;20184;-73
2020/12/19 10:32:12;;;;;;;0.20;0.20;;;2.40;99.90;;;;;;5111898;28;20187;-74
2020/12/19 10:34:39;;;;;;;0.10;0.10;;;2.40;99.90;;;;;;5110668;28;20258;-73
2020/12/19 10:37:05;;;;;;;0.68;0.68;;;2.50;99.90;;;;;;5111571;28;20164;-73
2020/12/19 10:39:31;;;;;;;0.30;0.30;;;2.50;99.90;;;;;;5111713;28;20166;-73
2020/12/19 10:41:57;;;;;;;0.15;0.15;;;2.50;99.90;;;;;;5111487;28;20265;-73
2020/12/19 10:44:24;;;;;;;0.17;0.17;;;2.40;99.90;;;;;;5111618;28;20151;-73
2020/12/19 10:46:50;;;;;;;0.10;0.10;;;2.40;99.90;;;;;;5111636;28;20538;-73
2020/12/19 10:49:15;;;;;;;0.80;0.80;;;2.40;99.90;;;;;;5111696;28;20163;-73
2020/12/19 10:51:42;;;;;;;1.33;1.33;;;2.60;99.90;;;;;;5110204;28;20262;-73
2020/12/19 10:54:08;;;;;;;2.05;1.33;;;2.60;99.90;;;;;;5111534;28;20191;-73
2020/12/19 10:56:34;;;;;;;0.10;0.10;;;2.60;99.90;;;;;;5111622;28;20162;-73
2020/12/19 10:58:59;;;;;;;0.20;0.20;;;2.60;99.90;;;;;;5111621;28;20159;-73
2020/12/19 11:01:26;;;;;;;5.78;1.55;;;2.60;99.90;;;;;;5110528;28;20195;-73
2020/12/19 11:03:52;;;;;;;0.20;0.20;;;2.60;99.90;;;;;;5110187;28;20163;-73
2020/12/19 11:06:25;;;;;;;0.63;0.63;;;2.60;99.90;;;;;;5110156;28;20200;-73
2020/12/19 11:08:53;;;;;;;0.95;0.95;;;2.50;99.90;;;;;;5110215;28;20616;-73
2020/12/19 11:11:20;;;;;;;0.20;0.20;;;2.50;99.90;;;;;;5109989;28;20569;-74
2020/12/19 11:13:47;;;;;;;0.57;0.57;;;2.60;99.90;;;;;;5109660;28;20194;-74
2020/12/19 11:16:24;;;;;;;0.47;0.47;;;2.60;99.90;;;;;;5109926;28;20163;-74
2020/12/19 11:18:51;;;;;;;0.10;0.10;;;2.60;99.90;;;;;;5110835;28;20159;-73
2020/12/19 11:21:18;;;;;;;0.75;0.75;;;2.70;99.90;;;;;;5109631;28;20191;-74
2020/12/19 11:23:44;;;;;;;0.63;0.63;;;2.80;99.90;;;;;;5110904;28;20162;-73
2020/12/19 11:26:10;;;;;;;0.10;0.10;;;2.90;99.90;;;;;;5110821;28;20159;-73
2020/12/19 11:28:37;;;;;;;0.90;0.85;;;2.70;99.90;;;;;;5110697;28;20160;-73
2020/12/19 11:31:04;;;;;;;1.38;1.27;;;2.70;99.90;;;;;;5108686;28;20203;-72
2020/12/19 11:33:29;;;;;;;0.30;0.30;;;2.80;99.90;;;;;;5110219;28;20215;-72
2020/12/19 11:35:58;;;;;;;0.10;0.10;;;2.90;99.90;;;;;;5109336;28;20160;-73
2020/12/19 11:38:23;;;;;;;0.00;0.00;;;2.70;99.90;;;;;;5108939;28;20175;-74
2020/12/19 11:40:49;;;;;;;0.10;0.10;;;2.70;99.90;;;;;;5110228;28;20195;-73
2020/12/19 11:43:15;;;;;;;0.30;0.30;;;2.80;99.90;;;;;;5110554;28;20164;-73
2020/12/19 11:45:41;;;;;;;0.10;0.10;;;2.70;99.90;;;;;;5110449;28;20205;-73
2020/12/19 11:48:07;;;;;;;0.10;0.10;;;2.90;99.90;;;;;;5110162;28;20168;-74
2020/12/19 11:50:33;;;;;;;0.63;0.63;;;3.00;99.90;;;;;;5110246;28;20282;-73
2020/12/19 11:52:59;;;;;;;0.98;0.88;;;3.00;99.90;;;;;;5110446;28;20155;-74
2020/12/19 11:55:24;;;;;;;0.35;0.35;;;3.00;99.90;;;;;;5110252;28;20163;-73
2020/12/19 11:57:50;;;;;;;0.45;0.45;;;2.90;99.90;;;;;;5110191;28;20163;-73
2020/12/19 12:00:16;;;;;;;0.60;0.60;;;2.90;99.90;;;;;;5110103;28;20194;-73
2020/12/19 12:02:42;;;;;;;0.73;0.73;;;2.90;99.90;;;;;;5110090;28;20207;-74
2020/12/19 12:05:09;;;;;;;0.10;0.10;;;3.00;99.90;;;;;;5110096;28;20159;-73
2020/12/19 12:07:36;;;;;;;0.28;0.28;;;2.90;99.90;;;;;;5108499;28;20171;-73
2020/12/19 12:10:02;;;;;;;0.55;0.55;;;2.90;99.90;;;;;;5109833;28;20205;-73
2020/12/19 12:12:28;;;;;;;1.38;1.38;;;3.10;99.90;;;;;;5109871;28;20155;-73
2020/12/19 12:14:54;;;;;;;0.20;0.20;;;3.10;99.90;;;;;;5109853;28;20198;-73
2020/12/19 12:17:20;;;;;;;0.55;0.55;;;3.10;99.90;;;;;;5108317;28;20175;-73
2020/12/19 12:19:46;;;;;;;0.45;0.45;;;3.10;99.90;;;;;;5108539;28;20168;-73
2020/12/19 12:22:11;;;;;;;0.20;0.20;;;3.10;99.90;;;;;;5108448;28;20306;-73
2020/12/19 12:24:37;;;;;;;0.20;0.20;;;3.20;99.90;;;;;;5108495;28;20171;-74
2020/12/19 12:27:03;;;;;;;0.10;0.10;;;3.30;99.90;;;;;;5109663;28;20174;-76
2020/12/19 12:29:29;;;;;;;0.35;0.35;;;3.20;99.90;;;;;;5109580;28;20155;-73
2020/12/19 12:31:55;;;;;;;0.25;0.25;;;3.30;99.90;;;;;;5109581;28;20195;-73
2020/12/19 12:34:21;;;;;;;0.50;0.50;;;3.30;99.90;;;;;;5109652;28;20198;-74
2020/12/19 12:36:47;;;;;;;0.68;0.40;;;3.20;99.90;;;;;;5109399;28;20163;-74
2020/12/19 12:39:13;;;;;;;0.10;0.10;;;3.30;99.90;;;;;;5108117;28;20172;-74
2020/12/19 12:41:43;;;;;;;1.05;1.05;;;3.30;99.90;;;;;;5109049;28;20245;-74
2020/12/19 12:44:09;;;;;;;0.50;0.50;;;3.40;99.90;;;;;;5109457;28;20155;-75
2020/12/19 12:46:35;;;;;;;1.73;1.63;;;3.40;99.90;;;;;;5108238;28;20204;-74
2020/12/19 12:49:01;;;;;;;0.45;0.45;;;3.30;99.90;;;;;;5108173;28;20186;-74
2020/12/19 12:51:27;;;;;;;0.25;0.25;;;3.30;99.90;;;;;;5109368;28;20190;-74
2020/12/19 12:53:53;;;;;;;0.75;0.75;;;3.30;99.90;;;;;;5109389;28;20187;-75
2020/12/19 12:56:23;;;;;;;0.10;0.10;;;3.30;99.90;;;;;;5109496;28;20237;-74
2020/12/19 12:58:50;;;;;;;0.17;0.17;;;3.30;99.90;;;;;;5109481;28;20158;-74
2020/12/19 13:01:16;;;;;;;0.17;0.17;;;3.40;99.90;;;;;;5109306;28;20187;-74